Time;durP1;ratioP1;P1;durP2;ratioP2;P2;SDS_P1;SDS_P2;PMS_P1;PMS_P2;Temp;Humidity;BMP_temperature;BMP_pressure;BME280_temperature;BME280_humidity;BME280_pressure;Samples;Min_cycle;Max_cycle;Signal;HPM_P1;HPM_P2
2022/05/27 00:02:01;;;;;;;1.23;1.10;;;14.90;99.90;;;;;;5072045;28;20268;-70
2022/05/27 00:04:50;;;;;;;1.30;1.20;;;14.70;99.90;;;;;;5071412;28;20200;-70
2022/05/27 00:07:39;;;;;;;1.03;0.93;;;14.60;99.90;;;;;;5071075;28;20782;-70
2022/05/27 00:10:28;;;;;;;0.40;0.40;;;14.40;99.90;;;;;;5072803;28;20243;-70
2022/05/27 00:13:16;;;;;;;0.40;0.40;;;14.30;99.90;;;;;;5075792;28;20474;-70
2022/05/27 00:16:05;;;;;;;2.20;1.30;;;14.30;99.90;;;;;;5072721;28;20430;-69
2022/05/27 00:18:53;;;;;;;0.40;0.40;;;14.20;99.90;;;;;;5071631;28;20439;-71
2022/05/27 00:21:41;;;;;;;4.57;2.73;;;14.20;99.90;;;;;;5072067;28;21050;-70
2022/05/27 00:24:29;;;;;;;0.50;0.50;;;14.20;99.90;;;;;;5072223;28;20516;-71
2022/05/27 00:27:18;;;;;;;0.40;0.40;;;14.30;99.90;;;;;;5051930;28;20416;-69
2022/05/27 00:30:09;;;;;;;0.50;0.50;;;14.20;99.90;;;;;;5051576;28;20841;-70
2022/05/27 00:32:58;;;;;;;0.50;0.50;;;14.20;99.90;;;;;;5050508;28;20476;-70
2022/05/27 00:35:46;;;;;;;0.40;0.40;;;14.00;99.90;;;;;;5051880;28;20453;-70
2022/05/27 00:38:34;;;;;;;0.40;0.40;;;14.10;99.90;;;;;;5051891;28;20420;-69
2022/05/27 00:41:22;;;;;;;1.33;0.70;;;14.20;99.90;;;;;;5051692;28;20425;-70
2022/05/27 00:44:12;;;;;;;0.40;0.40;;;14.10;99.90;;;;;;5051482;28;20983;-70
2022/05/27 00:47:04;;;;;;;0.70;0.70;;;14.10;99.90;;;;;;5051950;28;20416;-69
2022/05/27 00:49:56;;;;;;;0.50;0.50;;;14.10;99.90;;;;;;5053166;28;20971;-70
2022/05/27 00:52:46;;;;;;;0.60;0.60;;;14.10;99.90;;;;;;5051091;28;20464;-70
2022/05/27 00:55:41;;;;;;;0.40;0.40;;;14.10;99.90;;;;;;5051021;28;20417;-70
2022/05/27 00:58:33;;;;;;;0.80;0.80;;;14.20;99.90;;;;;;5051981;28;20941;-69
2022/05/27 01:01:23;;;;;;;4.43;3.17;;;14.10;99.90;;;;;;5052186;28;20424;-70
2022/05/27 01:04:12;;;;;;;0.60;0.50;;;14.10;99.90;;;;;;5051239;28;20452;-70
2022/05/27 01:07:00;;;;;;;0.50;0.50;;;14.10;99.90;;;;;;5051583;28;20859;-70
2022/05/27 01:09:50;;;;;;;0.40;0.40;;;14.00;99.90;;;;;;5051414;28;20432;-70
2022/05/27 01:12:53;;;;;;;1.10;1.07;;;14.00;99.90;;;;;;5050764;28;20468;-70
2022/05/27 01:15:53;;;;;;;0.50;0.50;;;14.00;99.90;;;;;;5051354;28;20420;-71
2022/05/27 01:22:34;;;;;;;1.33;1.23;;;14.00;99.90;;;;;;5054801;28;20432;-69
2022/05/27 01:26:00;;;;;;;3.37;2.23;;;14.00;99.90;;;;;;5069184;28;20430;-70
2022/05/27 01:28:51;;;;;;;3.90;3.70;;;14.00;99.90;;;;;;5095679;28;20806;-70
2022/05/27 01:31:45;;;;;;;0.50;0.50;;;14.10;99.90;;;;;;5094841;28;20969;-70
2022/05/27 01:34:41;;;;;;;1.10;0.93;;;14.10;99.90;;;;;;5095969;28;20418;-70
2022/05/27 01:37:42;;;;;;;2.97;2.50;;;14.10;99.90;;;;;;5088944;28;20426;-70
2022/05/27 01:40:36;;;;;;;0.57;0.57;;;14.10;99.90;;;;;;5071083;28;20999;-71
2022/05/27 01:43:31;;;;;;;0.40;0.40;;;14.10;99.90;;;;;;5074382;28;20446;-69
2022/05/27 01:46:26;;;;;;;1.63;1.33;;;14.20;99.90;;;;;;5075077;28;20423;-72
2022/05/27 01:49:27;;;;;;;1.80;1.20;;;14.10;99.90;;;;;;5074635;28;20415;-72
2022/05/27 01:52:22;;;;;;;0.50;0.50;;;14.10;99.90;;;;;;5073227;28;20967;-70
2022/05/27 01:55:15;;;;;;;0.77;0.60;;;14.10;99.90;;;;;;5075258;28;20566;-72
2022/05/27 01:58:11;;;;;;;0.50;0.50;;;14.20;99.90;;;;;;5074872;28;20507;-70
2022/05/27 02:00:59;;;;;;;0.40;0.40;;;14.10;99.90;;;;;;5075711;28;20434;-72
2022/05/27 02:03:52;;;;;;;0.63;0.63;;;14.20;99.90;;;;;;5074491;28;20225;-71
2022/05/27 02:06:48;;;;;;;0.90;0.90;;;14.20;99.90;;;;;;5074682;28;21010;-71
2022/05/27 02:09:41;;;;;;;0.50;0.50;;;14.20;99.90;;;;;;5075606;28;20423;-70
2022/05/27 02:12:32;;;;;;;1.77;1.23;;;14.20;99.90;;;;;;5073227;28;20467;-71
2022/05/27 02:15:27;;;;;;;1.33;1.03;;;14.20;99.90;;;;;;5081639;28;20443;-71
2022/05/27 02:18:22;;;;;;;1.00;1.00;;;14.30;99.90;;;;;;5077823;28;20500;-69
2022/05/27 02:21:15;;;;;;;4.37;3.97;;;14.30;99.90;;;;;;5073950;28;20424;-72
2022/05/27 02:24:08;;;;;;;0.40;0.40;;;14.30;99.90;;;;;;5075014;28;20461;-71
2022/05/27 02:27:03;;;;;;;0.40;0.40;;;14.30;99.90;;;;;;5094125;28;20488;-69
2022/05/27 02:29:55;;;;;;;3.67;1.93;;;14.30;99.90;;;;;;5093226;28;20427;-72
2022/05/27 02:32:48;;;;;;;3.23;2.93;;;14.30;99.90;;;;;;5093826;28;20262;-71
2022/05/27 02:35:37;;;;;;;1.53;1.43;;;14.30;99.90;;;;;;5094825;28;20526;-70
2022/05/27 02:38:27;;;;;;;0.50;0.50;;;14.30;99.90;;;;;;5093432;28;20484;-72
2022/05/27 02:41:24;;;;;;;5.77;4.37;;;14.40;99.90;;;;;;5094511;28;20434;-71
2022/05/27 02:44:24;;;;;;;0.40;0.40;;;14.40;99.90;;;;;;5093578;28;20449;-72
2022/05/27 02:47:18;;;;;;;1.50;1.40;;;14.40;99.90;;;;;;5093442;28;20426;-70
2022/05/27 02:50:14;;;;;;;0.50;0.50;;;14.40;99.90;;;;;;5095149;28;20508;-71
2022/05/27 02:53:12;;;;;;;1.53;1.33;;;14.50;99.90;;;;;;5093527;28;20470;-75
2022/05/27 02:56:07;;;;;;;0.40;0.40;;;14.50;99.90;;;;;;5093798;28;20429;-74
2022/05/27 02:58:57;;;;;;;1.57;1.10;;;14.40;99.90;;;;;;5094790;28;20430;-73
2022/05/27 03:01:47;;;;;;;1.43;1.30;;;14.40;99.90;;;;;;5093754;28;20418;-72
2022/05/27 03:04:35;;;;;;;3.00;1.47;;;14.40;99.90;;;;;;5093892;28;20407;-71
2022/05/27 03:07:38;;;;;;;1.13;1.00;;;14.40;99.90;;;;;;5093188;28;20423;-71
2022/05/27 03:10:39;;;;;;;1.87;1.70;;;14.40;99.90;;;;;;5094079;28;20430;-70
2022/05/27 03:13:45;;;;;;;3.03;2.73;;;14.40;99.90;;;;;;5093777;28;20963;-71
2022/05/27 03:16:48;;;;;;;0.70;0.70;;;14.40;99.90;;;;;;5092250;28;20491;-72
2022/05/27 03:19:47;;;;;;;0.73;0.73;;;14.40;99.90;;;;;;5094913;28;20418;-72
2022/05/27 03:22:46;;;;;;;0.60;0.60;;;14.40;99.90;;;;;;5092199;28;20814;-73
2022/05/27 03:25:40;;;;;;;0.70;0.70;;;14.40;99.90;;;;;;5084603;28;20475;-72
2022/05/27 03:28:34;;;;;;;0.40;0.40;;;14.40;99.90;;;;;;5073924;28;20802;-71
2022/05/27 03:31:28;;;;;;;1.93;1.17;;;14.30;99.90;;;;;;5073986;28;20423;-71
2022/05/27 03:34:24;;;;;;;0.93;0.93;;;14.40;99.90;;;;;;5072454;28;20856;-74
2022/05/27 03:37:17;;;;;;;0.83;0.83;;;14.40;99.90;;;;;;5073743;28;20859;-73
2022/05/27 03:40:10;;;;;;;0.40;0.40;;;14.40;99.90;;;;;;5071550;28;20423;-73
2022/05/27 03:42:59;;;;;;;0.40;0.40;;;14.40;99.90;;;;;;5072778;28;20216;-73
2022/05/27 03:45:49;;;;;;;0.40;0.40;;;14.40;99.90;;;;;;5072996;28;20427;-70
2022/05/27 03:48:38;;;;;;;0.40;0.40;;;14.50;99.90;;;;;;5090276;28;20200;-72
2022/05/27 03:51:30;;;;;;;0.60;0.60;;;14.40;99.90;;;;;;5092944;28;20443;-75
2022/05/27 03:54:20;;;;;;;0.80;0.80;;;14.40;99.90;;;;;;5094150;28;20329;-69
2022/05/27 03:57:09;;;;;;;0.50;0.50;;;14.40;99.90;;;;;;5092957;28;20425;-73
2022/05/27 03:59:57;;;;;;;0.60;0.60;;;14.50;99.90;;;;;;5092753;28;20419;-74
2022/05/27 04:02:45;;;;;;;0.67;0.67;;;14.50;99.90;;;;;;5092674;28;20454;-70
2022/05/27 04:05:34;;;;;;;0.47;0.47;;;14.50;99.90;;;;;;5092719;28;20450;-72
2022/05/27 04:08:24;;;;;;;1.13;0.70;;;14.50;99.90;;;;;;5093134;28;20422;-71
2022/05/27 04:11:12;;;;;;;0.47;0.47;;;14.60;99.90;;;;;;5092654;28;20513;-73
2022/05/27 04:14:00;;;;;;;1.00;1.00;;;14.50;99.90;;;;;;5092932;28;21001;-73
2022/05/27 04:16:49;;;;;;;0.40;0.40;;;14.60;99.90;;;;;;5092285;28;20484;-72
2022/05/27 04:19:37;;;;;;;0.40;0.40;;;14.60;99.90;;;;;;5093949;28;20517;-70
2022/05/27 04:22:25;;;;;;;0.47;0.47;;;14.60;99.90;;;;;;5091714;28;20414;-71
2022/05/27 04:25:16;;;;;;;0.60;0.60;;;14.70;99.90;;;;;;5086119;28;20196;-72
2022/05/27 04:28:04;;;;;;;0.40;0.40;;;14.70;99.90;;;;;;5072774;28;20200;-73
2022/05/27 04:30:53;;;;;;;0.50;0.50;;;14.70;99.90;;;;;;5073270;28;20603;-71
2022/05/27 04:33:41;;;;;;;0.40;0.40;;;14.70;99.90;;;;;;5072591;28;20263;-71
2022/05/27 04:36:29;;;;;;;0.40;0.40;;;14.70;99.90;;;;;;5073384;28;20669;-71
2022/05/27 04:39:17;;;;;;;0.40;0.40;;;14.70;99.90;;;;;;5073275;28;20423;-71
2022/05/27 04:42:07;;;;;;;0.40;0.40;;;14.70;99.90;;;;;;5073673;28;20192;-72
2022/05/27 04:44:56;;;;;;;0.70;0.70;;;14.80;99.90;;;;;;5073685;28;20192;-73
2022/05/27 04:47:45;;;;;;;0.50;0.50;;;14.80;99.90;;;;;;5073625;28;20653;-72
2022/05/27 04:50:33;;;;;;;0.40;0.40;;;14.70;99.90;;;;;;5073013;28;20279;-72
2022/05/27 04:53:22;;;;;;;0.40;0.40;;;14.80;99.90;;;;;;5073122;28;20450;-71
2022/05/27 04:56:11;;;;;;;0.70;0.70;;;14.80;99.90;;;;;;5078232;28;20480;-73
2022/05/27 04:59:00;;;;;;;0.50;0.50;;;14.80;99.90;;;;;;5076107;28;20240;-72
2022/05/27 05:01:48;;;;;;;0.50;0.50;;;14.80;99.90;;;;;;5077304;28;20249;-71
2022/05/27 05:04:36;;;;;;;0.40;0.40;;;14.80;99.90;;;;;;5075857;28;20480;-72
2022/05/27 05:07:26;;;;;;;1.17;0.83;;;14.80;99.90;;;;;;5077215;28;20197;-75
2022/05/27 05:10:18;;;;;;;12.53;2.87;;;14.80;99.90;;;;;;5076335;28;20420;-71
2022/05/27 05:13:06;;;;;;;2.37;1.23;;;14.80;99.90;;;;;;5076605;28;20801;-71
2022/05/27 05:15:56;;;;;;;0.40;0.40;;;14.70;99.90;;;;;;5076024;28;20447;-74
2022/05/27 05:18:44;;;;;;;1.00;1.00;;;14.60;99.90;;;;;;5075712;28;20427;-72
2022/05/27 05:21:32;;;;;;;0.60;0.60;;;14.50;99.90;;;;;;5075426;28;20336;-71
2022/05/27 05:24:20;;;;;;;1.43;0.67;;;14.50;99.90;;;;;;5076510;28;20504;-72
2022/05/27 05:27:08;;;;;;;0.60;0.60;;;14.40;99.90;;;;;;5056369;28;20678;-71
2022/05/27 05:29:57;;;;;;;1.13;0.73;;;14.30;99.90;;;;;;5056512;28;20435;-74
2022/05/27 05:32:47;;;;;;;9.47;2.73;;;14.30;99.90;;;;;;5056392;28;20221;-71
2022/05/27 05:35:35;;;;;;;2.93;1.90;;;14.30;99.90;;;;;;5056309;28;20878;-70
2022/05/27 05:38:25;;;;;;;0.43;0.43;;;14.30;99.90;;;;;;5056501;28;20424;-72
2022/05/27 05:41:13;;;;;;;0.40;0.40;;;14.40;99.90;;;;;;5056960;28;20432;-71
2022/05/27 05:44:01;;;;;;;0.67;0.67;;;14.40;99.90;;;;;;5067195;28;20260;-70
2022/05/27 05:46:50;;;;;;;2.67;2.57;;;14.50;99.90;;;;;;5077342;28;20431;-68
2022/05/27 05:49:39;;;;;;;0.40;0.40;;;14.50;99.90;;;;;;5096560;28;20204;-69
2022/05/27 05:52:27;;;;;;;0.60;0.60;;;14.60;99.90;;;;;;5094960;28;20235;-70
2022/05/27 05:55:18;;;;;;;0.93;0.93;;;14.60;99.90;;;;;;5080180;28;20266;-70
2022/05/27 05:58:06;;;;;;;1.43;1.17;;;14.60;99.90;;;;;;5094850;28;20242;-69
2022/05/27 06:00:55;;;;;;;0.40;0.40;;;14.60;99.90;;;;;;5096222;28;20208;-69
2022/05/27 06:03:43;;;;;;;0.40;0.40;;;14.70;99.90;;;;;;5096392;28;20498;-70
2022/05/27 06:06:33;;;;;;;0.87;0.87;;;14.80;99.90;;;;;;5092523;28;20473;-68
2022/05/27 06:09:25;;;;;;;0.40;0.40;;;14.80;99.90;;;;;;5096187;28;20201;-69
2022/05/27 06:12:16;;;;;;;0.60;0.60;;;14.90;99.90;;;;;;5095079;28;20434;-69
2022/05/27 06:15:08;;;;;;;0.80;0.70;;;15.00;99.90;;;;;;5096088;28;20220;-69
2022/05/27 06:17:59;;;;;;;0.50;0.50;;;14.40;99.90;;;;;;5088296;28;20429;-69
2022/05/27 06:20:48;;;;;;;0.83;0.83;;;14.90;99.90;;;;;;5078953;28;20427;-69
2022/05/27 06:23:38;;;;;;;0.57;0.57;;;14.80;99.90;;;;;;5076460;28;20971;-69
2022/05/27 06:26:26;;;;;;;1.17;0.77;;;14.60;99.90;;;;;;5075627;28;20412;-71
2022/05/27 06:35:27;;;;;;;1.30;1.30;;;14.90;99.90;;;;;;5073636;28;20216;-69
2022/05/27 06:38:16;;;;;;;1.23;1.17;;;14.90;99.90;;;;;;5073643;28;20427;-67
2022/05/27 06:41:06;;;;;;;0.97;0.97;;;14.90;99.90;;;;;;5074197;28;20419;-68
2022/05/27 06:43:55;;;;;;;0.40;0.40;;;14.90;99.90;;;;;;5073285;28;20447;-69
2022/05/27 06:46:44;;;;;;;0.40;0.40;;;15.00;99.90;;;;;;5072034;28;20411;-70
2022/05/27 06:49:33;;;;;;;0.60;0.60;;;14.90;99.90;;;;;;5073301;28;20927;-69
2022/05/27 06:52:24;;;;;;;0.50;0.50;;;14.90;99.90;;;;;;5073309;28;20224;-68
2022/05/27 06:55:16;;;;;;;1.23;0.97;;;15.10;99.90;;;;;;5070196;28;20479;-68
2022/05/27 06:58:06;;;;;;;3.53;2.30;;;15.40;99.90;;;;;;5066246;28;20197;-69
2022/05/27 07:00:54;;;;;;;0.50;0.50;;;15.60;99.90;;;;;;5067353;28;20430;-68
2022/05/27 07:03:42;;;;;;;0.40;0.40;;;15.60;99.90;;;;;;5060852;28;20228;-69
2022/05/27 07:06:34;;;;;;;8.10;3.13;;;15.70;99.90;;;;;;5062185;28;20210;-68
2022/05/27 07:09:23;;;;;;;1.37;0.70;;;15.90;99.90;;;;;;5069846;28;20298;-68
2022/05/27 07:12:12;;;;;;;1.37;1.10;;;15.80;99.90;;;;;;5064227;28;20239;-69
2022/05/27 07:15:02;;;;;;;1.03;0.93;;;16.90;99.90;;;;;;5058416;28;20214;-68
2022/05/27 07:17:50;;;;;;;0.40;0.40;;;16.00;99.90;;;;;;5060127;28;20193;-69
2022/05/27 07:20:40;;;;;;;0.40;0.40;;;15.80;99.90;;;;;;5061626;28;20228;-69
2022/05/27 07:23:28;;;;;;;2.93;1.00;;;15.90;99.90;;;;;;5055337;28;20221;-68
2022/05/27 07:26:16;;;;;;;0.80;0.70;;;15.90;99.90;;;;;;5078335;28;20259;-70
2022/05/27 07:29:05;;;;;;;0.80;0.70;;;15.70;99.90;;;;;;5058122;28;20208;-68
2022/05/27 07:31:55;;;;;;;0.70;0.70;;;15.70;99.90;;;;;;5067436;28;20279;-68
2022/05/27 07:34:46;;;;;;;0.50;0.50;;;15.90;99.90;;;;;;5054601;28;20200;-68
2022/05/27 07:37:35;;;;;;;0.40;0.40;;;16.10;99.90;;;;;;5072308;28;20205;-68
2022/05/27 07:40:23;;;;;;;0.40;0.40;;;16.10;99.90;;;;;;5066381;28;20200;-69
2022/05/27 07:43:13;;;;;;;0.53;0.50;;;16.30;99.90;;;;;;5057092;28;20739;-70
2022/05/27 07:46:01;;;;;;;3.10;1.15;;;16.50;99.90;;;;;;5060687;28;20201;-70
2022/05/27 07:48:51;;;;;;;0.50;0.50;;;16.30;99.90;;;;;;5058153;28;20209;-70
2022/05/27 07:51:59;;;;;;;0.50;0.50;;;16.10;99.90;;;;;;5060703;28;20200;-69
2022/05/27 07:54:48;;;;;;;1.17;1.08;;;15.90;99.90;;;;;;5067028;28;20606;-69
2022/05/27 07:57:43;;;;;;;0.83;0.83;;;16.10;99.90;;;;;;5058448;28;20687;-68
2022/05/27 08:00:34;;;;;;;1.60;1.17;;;16.30;99.90;;;;;;5060670;28;20432;-67
2022/05/27 08:03:25;;;;;;;0.67;0.67;;;16.30;99.90;;;;;;5067156;28;20633;-68
2022/05/27 08:06:15;;;;;;;0.60;0.60;;;16.20;99.90;;;;;;5062200;28;20224;-68
2022/05/27 08:09:03;;;;;;;1.00;0.70;;;16.20;99.90;;;;;;5055211;28;20221;-69
2022/05/27 08:11:52;;;;;;;0.40;0.40;;;16.10;99.90;;;;;;5069793;28;20262;-68
2022/05/27 08:14:40;;;;;;;0.88;0.88;;;16.10;99.90;;;;;;5071833;28;20209;-69
2022/05/27 08:17:28;;;;;;;0.40;0.40;;;16.30;99.90;;;;;;5055382;28;20259;-69
2022/05/27 08:20:20;;;;;;;0.60;0.60;;;16.50;99.90;;;;;;5060626;28;20201;-69
2022/05/27 08:23:10;;;;;;;0.60;0.60;;;16.70;99.90;;;;;;5066522;28;20220;-68
2022/05/27 08:25:58;;;;;;;1.15;1.00;;;16.70;99.90;;;;;;5067289;28;20557;-68
2022/05/27 08:28:47;;;;;;;0.40;0.40;;;16.60;99.90;;;;;;5056740;28;20205;-69
2022/05/27 08:31:36;;;;;;;9.15;1.05;;;16.50;99.90;;;;;;5055943;28;20207;-69
2022/05/27 08:41:01;;;;;;;0.80;0.80;;;16.60;99.90;;;;;;5059809;28;20201;-68
2022/05/27 08:44:08;;;;;;;1.08;0.98;;;16.70;99.90;;;;;;5059066;28;20668;-69
2022/05/27 08:47:02;;;;;;;0.60;0.60;;;16.70;99.90;;;;;;5055507;28;20566;-68
2022/05/27 08:49:58;;;;;;;0.50;0.50;;;16.70;99.90;;;;;;5064732;28;20269;-68
2022/05/27 08:52:48;;;;;;;0.60;0.60;;;16.50;99.90;;;;;;5076708;28;20224;-69
2022/05/27 09:02:03;;;;;;;1.07;0.73;;;15.90;99.90;;;;;;5058486;28;20236;-69
2022/05/27 09:05:00;;;;;;;1.00;0.63;;;15.90;99.90;;;;;;5057288;28;20678;-70
2022/05/27 09:07:54;;;;;;;2.27;1.20;;;16.10;99.90;;;;;;5057314;28;20658;-69
2022/05/27 09:10:53;;;;;;;0.60;0.60;;;16.40;99.90;;;;;;5059417;28;20452;-69
2022/05/27 09:13:48;;;;;;;3.90;0.80;;;16.40;99.90;;;;;;5056648;28;20632;-68
2022/05/27 09:16:42;;;;;;;0.60;0.60;;;16.30;99.90;;;;;;5058912;28;20271;-69
2022/05/27 09:19:58;;;;;;;0.50;0.50;;;16.30;99.90;;;;;;5059040;28;20703;-68
2022/05/27 09:22:55;;;;;;;1.40;0.80;;;16.40;99.90;;;;;;5057787;28;20228;-69
2022/05/27 09:25:54;;;;;;;0.70;0.70;;;16.40;99.90;;;;;;5056929;28;20209;-69
2022/05/27 09:28:53;;;;;;;2.20;2.00;;;16.30;99.90;;;;;;5058274;28;20277;-68
2022/05/27 09:31:45;;;;;;;0.80;0.73;;;16.30;99.90;;;;;;5085726;28;20200;-68
2022/05/27 09:34:37;;;;;;;0.40;0.40;;;16.30;99.90;;;;;;5090989;28;20326;-70
2022/05/27 09:37:28;;;;;;;1.20;0.63;;;16.40;99.90;;;;;;5089914;28;20223;-68
2022/05/27 09:40:19;;;;;;;0.70;0.70;;;16.40;99.90;;;;;;5092523;28;20676;-69
2022/05/27 09:43:16;;;;;;;0.50;0.50;;;16.60;99.90;;;;;;5093971;28;20227;-68
2022/05/27 09:46:06;;;;;;;1.15;1.00;;;16.80;99.90;;;;;;5094401;28;20200;-69
2022/05/27 09:48:57;;;;;;;7.80;1.20;;;16.90;99.90;;;;;;5094755;28;20200;-69
2022/05/27 09:51:49;;;;;;;0.80;0.70;;;17.10;99.90;;;;;;5094724;28;20204;-69
2022/05/27 09:54:46;;;;;;;1.30;0.73;;;17.20;99.90;;;;;;5094739;28;20196;-69
2022/05/27 09:57:35;;;;;;;3.05;1.25;;;17.30;99.90;;;;;;5093635;28;20301;-68
2022/05/27 10:00:41;;;;;;;4.90;1.77;;;17.30;99.90;;;;;;5093905;28;20198;-69
2022/05/27 10:03:36;;;;;;;2.45;1.35;;;17.00;99.90;;;;;;5092136;28;20227;-69
2022/05/27 10:06:27;;;;;;;7.38;1.02;;;16.80;99.90;;;;;;5093897;28;20587;-67
2022/05/27 10:09:27;;;;;;;0.85;0.85;;;17.00;99.90;;;;;;5094039;28;20192;-69
2022/05/27 10:12:28;;;;;;;1.20;1.10;;;17.20;99.90;;;;;;5094058;28;20231;-69
2022/05/27 10:15:29;;;;;;;1.52;0.68;;;17.40;99.90;;;;;;5093903;28;20195;-68
2022/05/27 10:18:22;;;;;;;0.50;0.50;;;17.40;99.90;;;;;;5094115;28;20196;-70
2022/05/27 10:21:16;;;;;;;1.05;0.95;;;17.50;99.90;;;;;;5094612;28;20200;-68
2022/05/27 10:24:16;;;;;;;1.95;1.13;;;17.50;99.90;;;;;;5080178;28;20595;-69
2022/05/27 10:27:08;;;;;;;0.52;0.52;;;17.50;99.60;;;;;;5095032;28;20203;-68
2022/05/27 10:29:58;;;;;;;0.82;0.82;;;17.60;98.20;;;;;;5090848;28;20203;-69
2022/05/27 10:32:47;;;;;;;2.90;1.20;;;17.60;98.00;;;;;;5074064;28;20244;-68
2022/05/27 10:35:37;;;;;;;2.83;1.63;;;17.70;98.70;;;;;;5072647;28;20286;-68
2022/05/27 10:38:41;;;;;;;1.02;0.52;;;17.90;97.50;;;;;;5074588;28;20234;-69
2022/05/27 10:41:43;;;;;;;0.70;0.50;;;18.00;97.50;;;;;;5073984;28;20214;-67
2022/05/27 10:44:41;;;;;;;7.07;0.95;;;18.00;97.50;;;;;;5073715;28;20600;-68
2022/05/27 10:47:42;;;;;;;0.77;0.57;;;18.00;95.90;;;;;;5074036;28;20276;-68
2022/05/27 10:50:33;;;;;;;0.60;0.60;;;18.00;94.70;;;;;;5073427;28;20254;-69
2022/05/27 10:53:59;;;;;;;2.40;1.38;;;18.20;94.40;;;;;;5071565;28;20221;-69
2022/05/27 11:03:47;;;;;;;6.13;3.30;;;18.20;94.80;;;;;;5072621;28;20270;-68
2022/05/27 11:06:49;;;;;;;1.58;1.48;;;18.50;94.60;;;;;;5074032;28;20741;-68
2022/05/27 11:09:53;;;;;;;2.75;1.23;;;18.70;94.90;;;;;;5074996;28;20273;-68
2022/05/27 11:16:07;;;;;;;1.30;1.08;;;19.00;95.60;;;;;;5054621;28;20609;-68
2022/05/27 11:19:10;;;;;;;1.02;0.77;;;18.80;94.40;;;;;;5053735;28;20214;-68
2022/05/27 11:22:12;;;;;;;1.83;1.45;;;18.30;94.80;;;;;;5053539;28;20208;-68
2022/05/27 11:25:16;;;;;;;1.30;0.98;;;18.10;94.70;;;;;;5053970;28;20276;-68
2022/05/27 11:28:34;;;;;;;2.05;1.20;;;17.80;95.70;;;;;;5053819;28;20197;-68
2022/05/27 11:31:31;;;;;;;0.90;0.73;;;17.90;95.80;;;;;;5052803;28;20691;-69
2022/05/27 11:34:25;;;;;;;1.38;1.10;;;18.10;96.40;;;;;;5053502;28;20232;-66
2022/05/27 11:37:40;;;;;;;7.53;1.10;;;18.50;95.20;;;;;;5053585;28;20633;-68
2022/05/27 11:40:47;;;;;;;2.17;1.85;;;18.70;94.10;;;;;;5053812;28;20240;-68
2022/05/27 11:43:47;;;;;;;2.67;0.60;;;19.10;94.10;;;;;;5053469;28;20716;-68
2022/05/27 11:46:54;;;;;;;1.63;0.90;;;19.10;93.80;;;;;;5053517;28;20662;-68
2022/05/27 11:50:02;;;;;;;1.58;1.13;;;18.90;92.10;;;;;;5053792;28;20205;-69
2022/05/27 11:53:04;;;;;;;0.60;0.60;;;19.00;92.10;;;;;;5073090;28;20270;-67
2022/05/27 11:56:05;;;;;;;0.50;0.50;;;19.00;90.00;;;;;;5073865;28;20204;-69
2022/05/27 11:58:59;;;;;;;1.92;1.73;;;19.00;90.40;;;;;;5071958;28;20231;-68
2022/05/27 12:01:51;;;;;;;0.85;0.82;;;18.90;89.00;;;;;;5071153;28;20285;-67
2022/05/27 12:04:43;;;;;;;0.60;0.60;;;18.50;90.00;;;;;;5071046;28;20204;-69
2022/05/27 12:07:37;;;;;;;0.60;0.60;;;18.20;90.70;;;;;;5071830;28;20309;-70
2022/05/27 12:10:27;;;;;;;0.95;0.90;;;18.40;91.20;;;;;;5071924;28;20204;-67
2022/05/27 12:13:26;;;;;;;1.27;0.70;;;18.60;91.60;;;;;;5072927;28;20231;-68
2022/05/27 12:16:17;;;;;;;0.40;0.40;;;18.80;90.70;;;;;;5073341;28;20197;-68
2022/05/27 12:19:09;;;;;;;1.50;1.50;;;18.70;90.40;;;;;;5073580;28;20224;-69
2022/05/27 12:22:05;;;;;;;1.02;0.60;;;19.00;91.10;;;;;;5073087;28;20197;-68
2022/05/27 12:24:57;;;;;;;0.50;0.50;;;19.50;90.50;;;;;;5073167;28;20205;-69
2022/05/27 12:27:45;;;;;;;4.53;1.35;;;19.60;90.00;;;;;;5073738;28;20277;-68
2022/05/27 12:30:40;;;;;;;3.17;1.55;;;19.60;89.60;;;;;;5081482;28;20196;-67
2022/05/27 12:33:31;;;;;;;1.25;0.80;;;19.70;85.50;;;;;;5091776;28;20302;-68
2022/05/27 12:36:24;;;;;;;1.00;0.90;;;20.00;85.20;;;;;;5092172;28;20227;-68
2022/05/27 12:39:24;;;;;;;0.70;0.68;;;19.90;83.40;;;;;;5092536;28;20220;-67
2022/05/27 12:42:17;;;;;;;2.90;1.00;;;19.70;82.20;;;;;;5089901;28;20211;-69
2022/05/27 12:45:22;;;;;;;0.60;0.60;;;21.20;80.90;;;;;;5092874;28;20211;-68
2022/05/27 12:48:23;;;;;;;0.95;0.60;;;23.00;74.50;;;;;;5090801;28;20672;-68
2022/05/27 12:51:37;;;;;;;1.80;0.73;;;23.80;72.00;;;;;;5092222;28;20248;-69
2022/05/27 12:55:00;;;;;;;1.80;0.63;;;24.40;68.30;;;;;;5091070;28;20224;-71
2022/05/27 13:01:23;;;;;;;1.30;0.70;;;22.10;68.80;;;;;;5091275;28;20196;-68
2022/05/27 13:04:46;;;;;;;2.70;0.57;;;23.70;66.50;;;;;;5091389;28;20223;-68
2022/05/27 13:08:02;;;;;;;1.23;0.65;;;24.70;64.60;;;;;;5090998;28;20550;-68
2022/05/27 13:10:52;;;;;;;1.85;0.77;;;25.50;63.00;;;;;;5089940;28;20204;-67
2022/05/27 13:13:42;;;;;;;0.98;0.60;;;26.50;60.00;;;;;;5091015;28;20689;-67
2022/05/27 13:16:33;;;;;;;4.22;0.77;;;27.40;58.30;;;;;;5094538;28;20571;-68
2022/05/27 13:19:29;;;;;;;1.05;0.70;;;27.30;56.10;;;;;;5095527;28;20723;-68
2022/05/27 13:22:33;;;;;;;0.47;0.47;;;27.60;55.30;;;;;;5095192;28;20543;-67
2022/05/27 13:25:26;;;;;;;0.60;0.60;;;27.10;55.30;;;;;;5094853;28;20254;-68
2022/05/27 13:28:28;;;;;;;1.33;0.63;;;25.10;56.80;;;;;;5093949;28;20203;-70
2022/05/27 13:31:25;;;;;;;1.33;1.08;;;21.50;72.80;;;;;;5080295;28;20204;-72
2022/05/27 13:34:17;;;;;;;0.60;0.60;;;20.80;71.30;;;;;;5074076;28;20223;-70
2022/05/27 13:37:13;;;;;;;0.95;0.95;;;22.80;69.70;;;;;;5073393;28;20326;-70
2022/05/27 13:40:07;;;;;;;3.17;1.08;;;24.60;63.80;;;;;;5075142;28;20198;-68
2022/05/27 13:43:01;;;;;;;0.98;0.70;;;26.20;61.60;;;;;;5066370;28;20317;-67
2022/05/27 13:45:55;;;;;;;2.40;0.50;;;26.30;60.70;;;;;;5075628;28;20294;-67
2022/05/27 13:48:49;;;;;;;2.05;1.10;;;26.50;60.20;;;;;;5075233;28;20193;-67
2022/05/27 13:51:41;;;;;;;1.05;0.60;;;27.20;59.90;;;;;;5073726;28;20241;-67
2022/05/27 13:54:32;;;;;;;10.00;1.23;;;28.40;56.30;;;;;;5074045;28;20224;-68
2022/05/27 13:57:28;;;;;;;1.80;1.48;;;26.70;55.90;;;;;;5074676;28;20213;-70
2022/05/27 14:00:19;;;;;;;0.68;0.45;;;23.50;59.80;;;;;;5067484;28;20208;-69
2022/05/27 14:03:08;;;;;;;0.40;0.40;;;22.30;64.70;;;;;;5054065;28;20232;-69
2022/05/27 14:05:58;;;;;;;2.88;0.70;;;23.80;60.00;;;;;;5053812;28;20236;-67
2022/05/27 14:08:47;;;;;;;3.42;1.25;;;25.30;58.10;;;;;;5054344;28;20198;-67
2022/05/27 14:11:35;;;;;;;2.10;0.65;;;26.70;55.80;;;;;;5054170;28;20205;-66
2022/05/27 14:14:28;;;;;;;1.60;0.90;;;28.40;54.80;;;;;;5052935;28;20257;-66
2022/05/27 14:17:18;;;;;;;0.60;0.60;;;28.80;51.70;;;;;;5054118;28;20276;-66
2022/05/27 14:20:11;;;;;;;2.38;0.70;;;27.50;52.70;;;;;;5054032;28;20741;-68
2022/05/27 14:23:03;;;;;;;1.77;0.68;;;25.70;55.00;;;;;;5054504;28;20241;-68
2022/05/27 14:25:58;;;;;;;0.70;0.70;;;25.10;55.00;;;;;;5053306;28;20319;-69
2022/05/27 14:28:51;;;;;;;0.60;0.60;;;23.80;55.90;;;;;;5059271;28;20193;-70
2022/05/27 14:31:41;;;;;;;0.50;0.50;;;22.20;58.10;;;;;;5089136;28;20273;-69
2022/05/27 14:34:32;;;;;;;0.60;0.60;;;21.00;60.10;;;;;;5092942;28;20227;-70
2022/05/27 14:37:39;;;;;;;1.33;0.60;;;20.50;62.10;;;;;;5093624;28;20200;-68
2022/05/27 14:40:40;;;;;;;0.75;0.75;;;20.00;63.50;;;;;;5092189;28;20196;-68
2022/05/27 14:43:36;;;;;;;3.00;1.00;;;19.50;65.70;;;;;;5092630;28;20735;-69
2022/05/27 14:46:27;;;;;;;1.50;0.80;;;21.10;63.40;;;;;;5092415;28;20199;-70
2022/05/27 14:49:29;;;;;;;4.10;0.82;;;23.40;59.40;;;;;;5092489;28;20192;-68
2022/05/27 14:52:22;;;;;;;1.45;1.33;;;24.90;56.50;;;;;;5093466;28;20203;-67
2022/05/27 14:55:15;;;;;;;2.47;1.20;;;26.50;54.50;;;;;;5095485;28;20196;-69
2022/05/27 14:58:06;;;;;;;0.52;0.52;;;27.10;52.00;;;;;;5098324;28;20208;-69
2022/05/27 15:00:54;;;;;;;2.05;0.95;;;25.00;53.90;;;;;;5092353;28;20272;-70
2022/05/27 15:03:42;;;;;;;0.50;0.50;;;23.30;57.40;;;;;;5091781;28;20256;-69
2022/05/27 15:06:37;;;;;;;0.50;0.50;;;22.40;60.20;;;;;;5093136;28;20665;-69
2022/05/27 15:09:32;;;;;;;0.40;0.40;;;24.00;60.60;;;;;;5092115;28;20249;-67
2022/05/27 15:12:26;;;;;;;0.50;0.50;;;26.40;58.00;;;;;;5092178;28;20665;-67
2022/05/27 15:15:28;;;;;;;1.35;1.25;;;28.10;55.70;;;;;;5091911;28;20249;-67
2022/05/27 15:18:25;;;;;;;0.90;0.90;;;28.90;53.00;;;;;;5093224;28;20596;-67
2022/05/27 15:21:29;;;;;;;0.60;0.60;;;29.10;53.10;;;;;;5093531;28;20203;-67
2022/05/27 15:24:24;;;;;;;0.40;0.40;;;28.80;52.90;;;;;;5091983;28;20242;-66
2022/05/27 15:33:38;;;;;;;1.50;1.40;;;23.40;58.70;;;;;;5072480;28;20612;-69
2022/05/27 15:36:26;;;;;;;0.60;0.50;;;23.10;56.80;;;;;;5073053;28;20204;-70
2022/05/27 15:39:14;;;;;;;0.60;0.60;;;22.30;60.30;;;;;;5070405;28;20694;-70
2022/05/27 15:42:04;;;;;;;0.52;0.52;;;22.40;62.10;;;;;;5072148;28;20204;-69
2022/05/27 15:44:53;;;;;;;9.10;1.63;;;23.70;61.60;;;;;;5072713;28;20197;-70
2022/05/27 15:47:42;;;;;;;0.50;0.50;;;23.90;60.00;;;;;;5072312;28;20669;-69